Time;durP1;ratioP1;P1;durP2;ratioP2;P2;SDS_P1;SDS_P2;PMS_P1;PMS_P2;Temp;Humidity;BMP_temperature;BMP_pressure;BME280_temperature;BME280_humidity;BME280_pressure;Samples;Min_cycle;Max_cycle;Signal;HPM_P1;HPM_P2
2022/06/03 00:02:31;;;;;;;1.73;1.27;;;20.40;60.70;;;;;;5030732;27;45405;-66
2022/06/03 00:05:29;;;;;;;2.22;1.52;;;20.40;60.70;;;;;;5021092;27;45357;-66
2022/06/03 00:08:11;;;;;;;2.15;1.42;;;20.40;60.50;;;;;;5046840;27;45472;-65
2022/06/03 00:11:01;;;;;;;2.70;1.17;;;20.40;60.60;;;;;;5018056;27;47987;-65
2022/06/03 00:13:49;;;;;;;2.65;1.20;;;20.40;60.80;;;;;;5032423;27;45702;-66
2022/06/03 00:16:30;;;;;;;3.70;1.10;;;20.40;60.50;;;;;;5064175;27;45243;-65
2022/06/03 00:19:23;;;;;;;1.63;1.23;;;20.50;60.60;;;;;;5028705;27;45396;-66
2022/06/03 00:22:10;;;;;;;3.03;1.30;;;20.50;60.50;;;;;;5019016;27;48107;-66
2022/06/03 00:25:02;;;;;;;1.88;1.08;;;20.50;60.50;;;;;;5033982;27;45377;-65
2022/06/03 00:28:00;;;;;;;4.70;1.10;;;20.50;60.50;;;;;;5031364;27;45313;-65
2022/06/03 00:30:42;;;;;;;2.15;1.50;;;20.50;60.50;;;;;;5045560;27;45155;-66
2022/06/03 00:33:43;;;;;;;1.90;1.00;;;20.50;60.50;;;;;;5073973;27;45238;-65
2022/06/03 00:36:39;;;;;;;1.42;1.02;;;20.50;60.50;;;;;;5019551;27;45641;-65
2022/06/03 00:39:28;;;;;;;1.13;0.80;;;20.50;61.50;;;;;;5020079;27;45263;-65
2022/06/03 00:42:24;;;;;;;2.10;1.00;;;20.50;60.50;;;;;;5055201;27;45267;-65
2022/06/03 00:45:16;;;;;;;1.75;1.00;;;20.50;60.70;;;;;;5039907;27;48239;-65
2022/06/03 00:47:59;;;;;;;1.73;1.10;;;20.40;60.50;;;;;;5074462;27;45194;-65
2022/06/03 00:51:04;;;;;;;1.05;0.90;;;20.50;60.70;;;;;;5023045;27;45360;-65
2022/06/03 00:54:01;;;;;;;1.77;0.98;;;20.40;60.70;;;;;;5095478;27;45144;-65
2022/06/03 00:56:59;;;;;;;3.17;1.10;;;20.40;60.60;;;;;;5033950;27;46295;-65
2022/06/03 00:59:44;;;;;;;1.95;1.00;;;20.40;60.70;;;;;;5021482;28;47157;-65
2022/06/03 01:02:23;;;;;;;2.22;1.20;;;20.50;60.80;;;;;;5018798;27;45745;-65
2022/06/03 01:05:07;;;;;;;1.50;1.00;;;20.40;60.70;;;;;;5020064;27;45272;-65
2022/06/03 01:07:46;;;;;;;3.35;1.10;;;20.40;60.70;;;;;;5023277;28;45222;-66
2022/06/03 01:10:35;;;;;;;1.45;0.95;;;20.40;60.70;;;;;;5022898;27;45114;-65
2022/06/03 01:13:18;;;;;;;3.40;0.90;;;20.40;60.70;;;;;;5024880;28;45299;-65
2022/06/03 01:15:54;;;;;;;1.27;0.90;;;20.50;60.70;;;;;;5021012;27;45313;-66
2022/06/03 01:18:37;;;;;;;4.32;1.35;;;20.40;60.60;;;;;;5011370;28;45292;-66
2022/06/03 01:21:18;;;;;;;2.38;1.30;;;20.40;60.80;;;;;;5018477;27;45703;-65
2022/06/03 01:24:18;;;;;;;1.48;1.10;;;20.50;60.70;;;;;;5016682;27;45650;-65
2022/06/03 01:27:14;;;;;;;2.53;1.30;;;20.50;60.60;;;;;;5019016;28;45334;-65
2022/06/03 01:30:19;;;;;;;1.30;1.10;;;20.50;61.70;;;;;;5014554;28;47091;-65
2022/06/03 01:33:09;;;;;;;1.83;1.50;;;20.50;60.60;;;;;;5016740;28;45241;-65
2022/06/03 01:36:12;;;;;;;1.52;1.10;;;20.50;60.70;;;;;;5023830;28;45135;-65
2022/06/03 01:38:56;;;;;;;1.83;1.42;;;20.50;60.60;;;;;;5040957;27;45248;-65
2022/06/03 01:41:37;;;;;;;1.23;1.05;;;20.50;60.70;;;;;;5022198;28;45369;-65
2022/06/03 01:44:24;;;;;;;3.70;1.20;;;20.50;60.70;;;;;;5022515;28;45169;-65
2022/06/03 01:47:19;;;;;;;1.25;1.05;;;20.40;60.60;;;;;;5023883;28;45400;-65
2022/06/03 01:50:07;;;;;;;2.08;1.10;;;20.50;60.60;;;;;;5019410;28;45491;-65
2022/06/03 01:53:08;;;;;;;1.58;1.27;;;20.40;60.60;;;;;;5022703;27;47138;-65
2022/06/03 01:56:13;;;;;;;1.88;1.10;;;20.40;60.70;;;;;;5024972;27;45599;-65
2022/06/03 01:59:16;;;;;;;1.35;1.10;;;20.40;60.70;;;;;;5025129;28;45371;-65
2022/06/03 02:02:48;;;;;;;1.85;1.27;;;20.40;60.60;;;;;;5019400;28;45593;-65
2022/06/03 02:05:35;;;;;;;3.30;1.25;;;20.40;60.70;;;;;;5086175;28;46179;-65
2022/06/03 02:08:28;;;;;;;1.27;1.05;;;20.40;60.80;;;;;;5029375;27;45291;-65
2022/06/03 02:11:15;;;;;;;1.80;1.00;;;20.40;60.70;;;;;;5025453;28;45166;-65
2022/06/03 02:14:27;;;;;;;1.98;1.23;;;20.50;60.70;;;;;;5021591;28;45348;-65
2022/06/03 02:17:13;;;;;;;1.50;1.00;;;20.40;60.50;;;;;;5033227;27;47139;-65
2022/06/03 02:20:23;;;;;;;1.67;1.20;;;20.50;60.50;;;;;;5063224;27;45182;-65
2022/06/03 02:23:20;;;;;;;2.22;1.30;;;20.50;60.50;;;;;;5022706;27;45681;-65
2022/06/03 02:26:32;;;;;;;0.80;0.80;;;20.50;60.50;;;;;;5022790;27;45627;-65
2022/06/03 02:32:29;;;;;;;2.10;1.25;;;20.50;61.50;;;;;;5056120;27;45260;-65
2022/06/03 02:35:15;;;;;;;1.33;1.05;;;20.50;60.50;;;;;;5026091;28;46096;-65
2022/06/03 02:38:18;;;;;;;2.38;1.27;;;20.50;60.40;;;;;;5022996;27;45143;-65
2022/06/03 02:41:24;;;;;;;0.98;0.90;;;20.50;60.30;;;;;;5006133;28;45981;-65
2022/06/03 02:44:18;;;;;;;1.70;1.08;;;20.50;60.50;;;;;;5020761;27;46376;-65
2022/06/03 02:47:22;;;;;;;1.73;1.10;;;20.40;60.50;;;;;;5059360;27;45527;-65
2022/06/03 02:50:27;;;;;;;1.42;1.00;;;20.40;60.50;;;;;;5055157;27;45381;-65
2022/06/03 02:53:35;;;;;;;2.97;1.23;;;20.50;60.60;;;;;;5021116;27;45334;-65
2022/06/03 02:56:40;;;;;;;1.52;0.90;;;20.40;60.60;;;;;;5052317;27;45127;-65
2022/06/03 02:59:42;;;;;;;3.03;1.20;;;20.40;60.50;;;;;;5020330;27;45236;-66
2022/06/03 03:02:32;;;;;;;1.38;1.10;;;20.40;60.60;;;;;;5057302;27;45163;-65
2022/06/03 03:05:18;;;;;;;2.30;1.40;;;20.40;60.50;;;;;;5024089;27;46271;-65
2022/06/03 03:07:59;;;;;;;1.95;1.30;;;20.40;60.90;;;;;;5019890;27;45955;-65
2022/06/03 03:10:55;;;;;;;1.33;1.10;;;20.40;60.50;;;;;;5104199;27;45242;-65
2022/06/03 03:13:50;;;;;;;1.70;1.15;;;20.40;60.40;;;;;;5012298;28;45113;-65
2022/06/03 03:16:37;;;;;;;1.88;1.30;;;20.40;60.30;;;;;;5058738;27;46374;-65
2022/06/03 03:19:45;;;;;;;1.80;1.20;;;20.40;60.40;;;;;;5055594;27;45620;-66
2022/06/03 03:22:31;;;;;;;1.00;0.95;;;20.50;60.30;;;;;;5030163;27;45292;-65
2022/06/03 03:25:14;;;;;;;1.30;1.20;;;20.50;60.40;;;;;;5054716;27;45328;-65
2022/06/03 03:27:57;;;;;;;2.45;1.10;;;20.50;60.50;;;;;;5036019;27;45974;-65
2022/06/03 03:30:31;;;;;;;1.15;1.05;;;20.50;60.50;;;;;;5075320;27;45298;-65
2022/06/03 03:33:20;;;;;;;3.05;1.10;;;20.50;60.70;;;;;;5075193;27;45187;-65
2022/06/03 03:36:07;;;;;;;1.63;1.13;;;20.50;60.30;;;;;;5026706;27;45335;-65
2022/06/03 03:39:01;;;;;;;1.88;1.10;;;20.50;60.40;;;;;;5020878;27;46576;-65
2022/06/03 03:41:58;;;;;;;1.67;1.30;;;20.50;60.40;;;;;;5033477;27;45399;-65
2022/06/03 03:45:18;;;;;;;1.20;1.10;;;20.50;60.60;;;;;;5020123;27;45282;-65
2022/06/03 03:48:22;;;;;;;1.77;1.08;;;20.40;60.50;;;;;;4979865;28;45485;-65
2022/06/03 03:51:13;;;;;;;1.40;1.10;;;20.50;60.70;;;;;;5003325;28;45451;-65
2022/06/03 03:54:22;;;;;;;1.40;1.08;;;20.50;60.60;;;;;;5018170;28;46240;-65
2022/06/03 03:57:28;;;;;;;1.25;1.15;;;20.40;60.50;;;;;;4993000;28;45308;-65
2022/06/03 04:00:23;;;;;;;1.17;1.00;;;20.40;60.50;;;;;;5005644;28;45240;-65
2022/06/03 04:03:19;;;;;;;2.13;1.38;;;20.40;60.50;;;;;;5032285;27;48186;-65
2022/06/03 04:06:20;;;;;;;1.63;1.00;;;20.40;60.50;;;;;;5020015;27;45204;-65
2022/06/03 04:09:20;;;;;;;1.60;0.90;;;20.40;60.50;;;;;;5021712;27;45340;-65
2022/06/03 04:12:29;;;;;;;1.77;1.25;;;20.40;60.30;;;;;;5019031;27;45245;-65
2022/06/03 04:18:29;;;;;;;1.50;1.10;;;20.40;60.30;;;;;;5207160;22;45436;-65
2022/06/03 04:21:28;;;;;;;2.47;1.52;;;20.40;60.30;;;;;;5094736;27;45448;-64
2022/06/03 04:24:27;;;;;;;3.97;1.27;;;20.40;60.40;;;;;;5097486;27;45371;-64
2022/06/03 04:27:29;;;;;;;4.63;1.10;;;20.40;60.40;;;;;;5093289;27;45289;-64
2022/06/03 04:30:35;;;;;;;1.17;1.00;;;20.40;60.40;;;;;;5098906;27;45555;-64
2022/06/03 04:33:30;;;;;;;1.25;0.88;;;20.40;60.40;;;;;;5059950;27;45664;-64
2022/06/03 04:36:32;;;;;;;1.45;1.02;;;20.40;60.50;;;;;;5100138;27;45547;-64
2022/06/03 04:39:32;;;;;;;1.23;1.13;;;20.50;60.60;;;;;;5095427;27;45241;-64
2022/06/03 04:42:42;;;;;;;4.53;0.90;;;20.40;60.60;;;;;;5095464;27;45359;-64
2022/06/03 04:45:48;;;;;;;1.02;0.80;;;20.40;60.60;;;;;;5080186;27;45272;-64
2022/06/03 04:48:54;;;;;;;1.35;0.98;;;20.40;61.70;;;;;;5097370;27;46608;-64
2022/06/03 04:52:03;;;;;;;1.25;0.90;;;20.40;60.70;;;;;;5096620;27;45309;-64
2022/06/03 04:55:09;;;;;;;1.15;0.85;;;20.50;60.80;;;;;;5101324;27;45232;-64
2022/06/03 04:58:04;;;;;;;1.55;1.10;;;20.40;60.80;;;;;;5098585;27;45219;-64
2022/06/03 05:01:09;;;;;;;1.80;1.10;;;20.40;60.80;;;;;;5097449;27;45537;-64
2022/06/03 05:04:08;;;;;;;1.52;1.10;;;20.40;60.80;;;;;;5101245;27;47437;-64
2022/06/03 05:07:28;;;;;;;1.70;1.10;;;20.50;61.00;;;;;;5101815;27;45466;-64
2022/06/03 05:10:48;;;;;;;1.25;1.02;;;20.40;60.90;;;;;;5058883;27;45369;-64
2022/06/03 05:13:48;;;;;;;1.17;1.00;;;20.40;60.90;;;;;;5098092;27;45301;-64
2022/06/03 05:17:08;;;;;;;1.80;1.10;;;20.40;60.90;;;;;;5099843;27;45452;-64
2022/06/03 05:20:09;;;;;;;1.75;1.20;;;20.50;61.00;;;;;;5045816;27;45234;-65
2022/06/03 05:22:52;;;;;;;1.15;0.90;;;20.50;61.10;;;;;;5097574;27;45248;-64
2022/06/03 05:25:58;;;;;;;1.67;1.00;;;20.50;61.50;;;;;;5105062;27;45579;-64
2022/06/03 05:28:51;;;;;;;1.50;1.10;;;20.50;61.60;;;;;;5102267;27;46306;-64
2022/06/03 05:31:54;;;;;;;1.30;1.00;;;20.50;61.50;;;;;;5106663;27;45237;-64
2022/06/03 05:34:50;;;;;;;1.52;0.90;;;20.50;61.00;;;;;;5098105;27;45182;-64
2022/06/03 05:37:59;;;;;;;1.35;1.00;;;20.50;60.50;;;;;;5099010;27;45373;-64
2022/06/03 05:40:40;;;;;;;1.95;0.93;;;20.40;60.30;;;;;;5099379;27;45242;-64
2022/06/03 05:43:38;;;;;;;0.80;0.80;;;20.40;60.30;;;;;;5094482;27;45782;-64
2022/06/03 05:46:19;;;;;;;4.30;1.30;;;20.40;60.30;;;;;;5100453;27;46700;-63
2022/06/03 05:48:57;;;;;;;14.82;2.28;;;20.40;61.50;;;;;;5108689;27;45351;-64
2022/06/03 05:51:37;;;;;;;3.85;1.10;;;20.50;61.20;;;;;;5096258;27;45613;-64
2022/06/03 05:54:13;;;;;;;2.03;1.00;;;20.50;61.20;;;;;;5099833;27;45433;-64
2022/06/03 05:56:49;;;;;;;3.28;1.35;;;20.50;61.40;;;;;;5107191;27;45409;-64
2022/06/03 05:59:34;;;;;;;1.15;0.95;;;20.50;61.40;;;;;;5100780;27;45412;-64
2022/06/03 06:02:16;;;;;;;1.90;1.00;;;20.50;61.40;;;;;;5100501;27;47104;-64
2022/06/03 06:04:59;;;;;;;3.28;1.05;;;20.50;61.50;;;;;;5093856;27;45345;-64
2022/06/03 06:07:32;;;;;;;1.95;1.02;;;20.50;61.50;;;;;;5100210;27;45553;-64
2022/06/03 06:10:06;;;;;;;2.28;1.00;;;20.50;61.60;;;;;;5096223;27;45451;-64
2022/06/03 06:12:47;;;;;;;1.27;1.02;;;20.50;61.70;;;;;;5107463;27;46246;-64
2022/06/03 06:15:49;;;;;;;2.55;0.90;;;20.60;61.80;;;;;;5098029;27;45146;-64
2022/06/03 06:18:24;;;;;;;2.63;1.00;;;20.60;61.90;;;;;;5110294;27;45334;-64
2022/06/03 06:21:04;;;;;;;2.58;1.30;;;20.60;62.00;;;;;;5108724;27;45199;-64
2022/06/03 06:23:41;;;;;;;3.30;0.98;;;20.60;62.00;;;;;;5103987;27;46200;-64
2022/06/03 06:26:39;;;;;;;1.80;1.08;;;20.60;62.10;;;;;;5089105;28;45161;-64
2022/06/03 06:29:37;;;;;;;2.40;1.08;;;20.60;62.20;;;;;;5094014;27;45245;-64
2022/06/03 06:32:34;;;;;;;1.42;0.93;;;20.60;62.20;;;;;;5089066;27;45339;-64
2022/06/03 06:35:51;;;;;;;2.47;1.20;;;20.60;62.30;;;;;;5103197;27;45237;-64
2022/06/03 06:38:25;;;;;;;2.05;0.90;;;20.60;62.40;;;;;;5045819;28;45538;-65
2022/06/03 06:41:06;;;;;;;2.97;1.10;;;20.60;62.50;;;;;;5089663;27;45232;-64
2022/06/03 06:43:40;;;;;;;3.00;1.40;;;20.60;62.60;;;;;;5107946;27;45374;-64
2022/06/03 06:46:18;;;;;;;2.35;0.95;;;20.60;62.60;;;;;;5110694;27;47523;-64
2022/06/03 06:48:58;;;;;;;2.28;1.05;;;20.60;62.70;;;;;;5093462;27;45223;-64
2022/06/03 06:51:58;;;;;;;1.05;0.90;;;20.60;62.90;;;;;;5087749;27;45338;-64
2022/06/03 06:54:32;;;;;;;1.20;0.90;;;20.60;62.80;;;;;;5100097;27;45226;-64
2022/06/03 06:57:03;;;;;;;1.75;0.93;;;20.60;62.90;;;;;;5102219;27;45229;-64
2022/06/03 06:59:37;;;;;;;1.48;0.90;;;20.60;62.90;;;;;;5101548;27;45290;-64
2022/06/03 07:02:16;;;;;;;1.05;0.90;;;20.60;62.90;;;;;;5101232;27;45292;-64
2022/06/03 07:04:49;;;;;;;2.45;1.02;;;20.60;62.90;;;;;;5110543;27;45270;-64
2022/06/03 07:07:23;;;;;;;1.27;1.15;;;20.60;63.10;;;;;;5106357;27;46208;-64
2022/06/03 07:09:56;;;;;;;2.50;1.30;;;20.60;63.10;;;;;;5106369;27;45171;-64
2022/06/03 07:12:28;;;;;;;1.08;0.85;;;20.60;63.30;;;;;;5097302;27;45280;-64
2022/06/03 07:14:58;;;;;;;1.23;0.90;;;20.60;63.30;;;;;;5104292;27;45260;-64
2022/06/03 07:20:37;;;;;;;1.20;0.88;;;20.60;63.40;;;;;;5061254;27;45262;-64
2022/06/03 07:23:11;;;;;;;0.77;0.70;;;20.60;63.60;;;;;;5084721;27;45419;-64
2022/06/03 07:25:44;;;;;;;1.30;1.00;;;20.60;64.00;;;;;;5090655;27;45254;-64
2022/06/03 07:28:25;;;;;;;1.90;1.15;;;20.70;64.30;;;;;;5101105;27;47748;-64
2022/06/03 07:30:59;;;;;;;1.90;1.13;;;20.70;64.20;;;;;;5103474;27;45732;-64
2022/06/03 07:33:41;;;;;;;3.35;1.00;;;20.70;64.20;;;;;;5093978;27;45313;-64
2022/06/03 07:36:15;;;;;;;0.75;0.60;;;20.70;64.10;;;;;;5089396;27;45296;-64
2022/06/03 07:38:49;;;;;;;0.90;0.80;;;20.60;63.60;;;;;;5096661;27;47808;-64
2022/06/03 07:41:22;;;;;;;2.08;1.00;;;20.60;63.60;;;;;;5101724;27;45262;-64
2022/06/03 07:43:56;;;;;;;1.35;0.70;;;20.60;63.60;;;;;;5097781;27;45255;-64
2022/06/03 07:46:30;;;;;;;1.27;0.90;;;20.60;63.60;;;;;;5109518;27;45244;-64
2022/06/03 07:48:58;;;;;;;2.03;0.95;;;20.60;63.80;;;;;;5096405;27;46360;-64
2022/06/03 07:51:31;;;;;;;1.40;0.80;;;20.60;64.10;;;;;;5089810;27;45254;-65
2022/06/03 07:54:03;;;;;;;1.45;0.90;;;20.60;64.00;;;;;;5102474;27;45365;-64
2022/06/03 07:56:33;;;;;;;0.80;0.60;;;20.60;63.90;;;;;;5109331;27;45346;-64
2022/06/03 07:59:06;;;;;;;1.52;0.80;;;20.60;64.10;;;;;;5094911;27;46345;-64
2022/06/03 08:01:36;;;;;;;2.03;0.93;;;20.60;64.20;;;;;;5103088;27;45345;-64
2022/06/03 08:04:05;;;;;;;1.65;1.10;;;20.60;64.20;;;;;;5104761;27;45122;-64
2022/06/03 08:12:00;;;;;;;1.67;0.80;;;20.60;64.40;;;;;;5106239;27;45487;-64
2022/06/03 08:14:27;;;;;;;2.20;0.85;;;20.70;64.30;;;;;;5109164;27;45357;-64
2022/06/03 08:16:55;;;;;;;1.48;0.90;;;20.60;64.20;;;;;;5099982;27;46587;-64
2022/06/03 08:19:27;;;;;;;0.73;0.60;;;20.60;65.10;;;;;;5092635;27;46283;-64
2022/06/03 08:21:59;;;;;;;2.67;0.98;;;20.70;64.20;;;;;;5086650;27;45719;-64
2022/06/03 08:24:31;;;;;;;1.33;1.02;;;20.70;64.20;;;;;;5103174;27;45264;-64
2022/06/03 08:27:01;;;;;;;1.50;0.90;;;20.60;64.20;;;;;;5103462;27;45190;-63
2022/06/03 08:29:35;;;;;;;4.88;0.88;;;20.70;64.50;;;;;;5092410;27;47714;-68
2022/06/03 08:32:06;;;;;;;3.22;0.70;;;20.70;67.90;;;;;;5091049;27;45998;-66
2022/06/03 08:34:39;;;;;;;3.22;1.13;;;20.70;69.10;;;;;;5097695;27;45275;-67
2022/06/03 08:37:10;;;;;;;16.20;2.35;;;20.70;70.40;;;;;;5104369;27;45488;-68
2022/06/03 08:39:40;;;;;;;18.80;1.90;;;20.70;71.60;;;;;;5095650;27;45471;-69
2022/06/03 08:42:19;;;;;;;2.90;1.35;;;20.70;70.90;;;;;;5089824;27;46107;-69
2022/06/03 08:44:54;;;;;;;8.82;1.15;;;20.60;70.90;;;;;;5099194;27;45619;-69
2022/06/03 08:47:28;;;;;;;5.63;1.38;;;20.60;71.70;;;;;;5097411;27;45278;-69
2022/06/03 08:50:02;;;;;;;1.35;0.90;;;20.50;72.40;;;;;;5092572;27;46523;-69
2022/06/03 08:52:44;;;;;;;5.10;0.88;;;20.50;73.00;;;;;;5093860;27;45474;-69
2022/06/03 08:55:29;;;;;;;1.50;0.80;;;20.50;73.50;;;;;;5104115;27;45252;-69
2022/06/03 08:58:00;;;;;;;3.33;1.00;;;20.50;73.70;;;;;;5103884;27;45139;-69
2022/06/03 09:00:40;;;;;;;3.28;0.80;;;20.50;73.80;;;;;;5092932;27;45637;-69
2022/06/03 09:03:13;;;;;;;2.25;1.00;;;20.50;74.30;;;;;;5097122;27;45648;-69
2022/06/03 09:05:45;;;;;;;2.72;0.98;;;20.50;74.50;;;;;;5093779;27;45561;-69
2022/06/03 09:08:20;;;;;;;1.55;0.80;;;20.50;75.00;;;;;;5093803;27;45481;-69
2022/06/03 09:10:56;;;;;;;2.20;0.98;;;20.50;75.20;;;;;;5095736;27;48366;-69
2022/06/03 09:13:27;;;;;;;1.75;0.80;;;20.50;75.50;;;;;;5100810;27;45215;-69
2022/06/03 09:15:56;;;;;;;1.25;0.80;;;20.50;75.90;;;;;;5104023;27;45141;-69
2022/06/03 09:18:29;;;;;;;1.75;0.70;;;20.50;75.70;;;;;;5088672;27;45542;-69
2022/06/03 09:21:02;;;;;;;2.08;0.63;;;20.50;76.40;;;;;;5099337;27;47091;-68
2022/06/03 09:23:33;;;;;;;1.05;0.65;;;20.50;75.40;;;;;;5093604;27;45163;-68
2022/06/03 09:26:01;;;;;;;0.85;0.70;;;20.50;76.30;;;;;;5098837;27;45493;-68
2022/06/03 09:28:35;;;;;;;0.55;0.50;;;20.50;75.10;;;;;;5102170;27;45795;-68
2022/06/03 09:31:07;;;;;;;1.38;0.70;;;20.40;74.60;;;;;;5101528;27;46213;-68
2022/06/03 09:33:36;;;;;;;1.10;0.70;;;20.40;75.90;;;;;;5104545;27;45336;-68
2022/06/03 09:36:13;;;;;;;1.10;0.70;;;20.40;76.10;;;;;;5101019;27;45169;-68
2022/06/03 09:38:44;;;;;;;0.77;0.70;;;20.40;76.10;;;;;;5098715;27;45276;-67
2022/06/03 09:41:12;;;;;;;5.38;0.75;;;20.50;76.80;;;;;;5093153;27;45336;-67
2022/06/03 09:43:42;;;;;;;0.88;0.52;;;20.40;76.50;;;;;;5092163;27;45272;-67
2022/06/03 09:46:12;;;;;;;2.08;0.73;;;20.50;76.50;;;;;;5099185;27;45353;-68
2022/06/03 09:48:41;;;;;;;0.68;0.68;;;20.40;78.00;;;;;;5090992;27;45804;-68
2022/06/03 09:51:15;;;;;;;1.20;0.60;;;20.40;77.80;;;;;;5093057;27;48606;-68
2022/06/03 09:53:43;;;;;;;0.55;0.55;;;20.40;78.60;;;;;;5100383;27;45393;-67
2022/06/03 09:56:20;;;;;;;1.15;0.68;;;20.40;79.40;;;;;;5094818;27;45227;-67
2022/06/03 09:58:49;;;;;;;0.90;0.60;;;20.50;80.10;;;;;;5092236;27;45378;-67
2022/06/03 10:01:16;;;;;;;2.00;0.90;;;20.50;80.40;;;;;;5100239;27;46462;-67
2022/06/03 10:03:43;;;;;;;1.23;0.60;;;20.50;80.20;;;;;;5103870;27;45222;-67
2022/06/03 10:06:43;;;;;;;1.92;0.80;;;20.50;80.70;;;;;;5097206;27;45357;-67
2022/06/03 10:14:30;;;;;;;1.27;0.90;;;20.50;81.90;;;;;;5097315;27;45319;-67
2022/06/03 10:16:57;;;;;;;0.68;0.57;;;20.50;81.70;;;;;;5104075;27;45232;-67
2022/06/03 10:19:24;;;;;;;0.82;0.65;;;20.50;81.90;;;;;;5097948;27;45378;-67
2022/06/03 10:21:53;;;;;;;0.50;0.50;;;20.50;81.50;;;;;;5095848;27;47453;-67
2022/06/03 10:24:23;;;;;;;0.77;0.60;;;20.50;81.40;;;;;;5089993;27;45216;-67
2022/06/03 10:26:51;;;;;;;1.33;0.75;;;20.50;81.50;;;;;;5099311;27;45544;-67
2022/06/03 10:29:19;;;;;;;0.90;0.60;;;20.50;81.70;;;;;;5098820;27;45216;-67
2022/06/03 10:31:52;;;;;;;0.88;0.50;;;20.50;81.70;;;;;;5101970;27;46216;-67
2022/06/03 10:34:24;;;;;;;0.57;0.52;;;20.50;81.70;;;;;;5098593;27;45153;-67
2022/06/03 10:36:54;;;;;;;0.52;0.52;;;20.50;81.80;;;;;;5095810;27;45357;-67
2022/06/03 10:39:27;;;;;;;11.98;1.20;;;20.50;81.90;;;;;;5099956;27;45443;-72
2022/06/03 10:41:56;;;;;;;2.58;1.10;;;20.50;84.40;;;;;;5094218;27;46465;-72
2022/06/03 10:44:27;;;;;;;2.65;1.00;;;19.70;71.90;;;;;;5103105;27;46062;-72
2022/06/03 10:46:56;;;;;;;1.25;1.10;;;19.50;78.60;;;;;;5094923;27;45391;-73
2022/06/03 10:49:24;;;;;;;4.45;1.20;;;19.50;83.50;;;;;;5099593;27;45262;-73
2022/06/03 11:02:59;;;;;;;3.30;1.00;;;19.10;83.30;;;;;;5097613;27;46061;-73
2022/06/03 11:05:29;;;;;;;1.90;0.90;;;19.10;82.80;;;;;;5104195;27;45203;-73
2022/06/03 11:08:04;;;;;;;4.53;0.95;;;19.10;82.20;;;;;;5088280;27;45389;-73
2022/06/03 11:10:33;;;;;;;2.35;0.90;;;19.30;70.20;;;;;;5089139;28;45171;-73
2022/06/03 11:13:01;;;;;;;1.45;0.90;;;19.50;78.90;;;;;;5096618;27;45977;-74
2022/06/03 11:15:35;;;;;;;2.42;1.13;;;19.50;83.10;;;;;;5106954;27;45473;-74
2022/06/03 11:18:15;;;;;;;1.17;0.98;;;19.30;78.20;;;;;;5110202;27;45229;-73
2022/06/03 11:20:42;;;;;;;2.67;1.38;;;19.30;79.60;;;;;;5108533;27;45421;-74
2022/06/03 11:23:12;;;;;;;4.32;1.40;;;19.30;81.50;;;;;;5104744;27;46469;-74
2022/06/03 11:25:42;;;;;;;1.90;1.45;;;19.30;81.00;;;;;;5110665;27;45170;-74
2022/06/03 11:28:13;;;;;;;2.55;1.00;;;19.30;73.90;;;;;;5107452;27;45192;-74
2022/06/03 11:30:47;;;;;;;1.30;1.08;;;19.40;79.10;;;;;;5092193;27;45305;-74
2022/06/03 11:33:26;;;;;;;4.32;0.77;;;19.30;79.60;;;;;;5101038;27;45956;-74
2022/06/03 11:35:57;;;;;;;1.10;1.00;;;19.30;83.10;;;;;;5094624;27;45260;-73
2022/06/03 11:38:30;;;;;;;1.27;0.77;;;19.40;79.70;;;;;;5095287;27;46355;-74
2022/06/03 11:41:02;;;;;;;1.73;1.08;;;19.40;82.80;;;;;;5096830;27;45388;-75
2022/06/03 11:43:35;;;;;;;3.10;1.02;;;19.30;82.30;;;;;;5092050;27;45353;-74
2022/06/03 11:46:05;;;;;;;2.35;1.08;;;19.30;82.90;;;;;;5098016;27;45835;-74
2022/06/03 11:48:35;;;;;;;3.28;1.10;;;19.10;78.90;;;;;;5104276;27;45238;-74
2022/06/03 11:51:03;;;;;;;1.67;1.00;;;19.20;81.40;;;;;;5098150;27;45623;-75
2022/06/03 11:53:33;;;;;;;2.70;1.02;;;19.30;77.50;;;;;;5105781;27;46623;-75
2022/06/03 11:56:03;;;;;;;1.77;1.25;;;19.30;83.30;;;;;;5099822;27;45480;-75
2022/06/03 11:58:43;;;;;;;2.00;1.13;;;19.30;82.70;;;;;;5099400;27;45214;-74
2022/06/03 12:01:17;;;;;;;1.88;1.02;;;19.40;73.30;;;;;;5099223;27;45335;-75
2022/06/03 12:03:51;;;;;;;3.60;1.00;;;19.40;80.30;;;;;;5099055;27;46039;-75
2022/06/03 12:06:23;;;;;;;1.95;1.13;;;19.30;77.70;;;;;;5096744;27;45247;-75
2022/06/03 12:08:58;;;;;;;3.35;1.20;;;19.40;82.70;;;;;;5092148;27;45188;-75
2022/06/03 12:14:35;;;;;;;1.55;1.10;;;19.30;86.00;;;;;;5100848;27;45757;-75
2022/06/03 12:17:26;;;;;;;1.70;0.95;;;19.30;74.30;;;;;;5104125;27;45323;-75
2022/06/03 12:19:54;;;;;;;1.88;1.23;;;19.40;85.20;;;;;;5094359;27;45256;-75
2022/06/03 12:22:42;;;;;;;2.78;0.90;;;19.20;76.30;;;;;;5093142;27;45243;-75
2022/06/03 12:25:44;;;;;;;1.88;1.33;;;19.30;77.70;;;;;;5087993;27;47372;-75
2022/06/03 12:28:23;;;;;;;4.43;1.17;;;19.30;85.40;;;;;;5084087;27;45361;-75
2022/06/03 12:30:52;;;;;;;4.97;1.20;;;19.40;80.00;;;;;;5102610;27;45239;-75
2022/06/03 12:33:27;;;;;;;2.08;0.93;;;19.40;81.70;;;;;;5102906;27;45274;-75
2022/06/03 12:36:09;;;;;;;1.83;1.15;;;19.50;85.00;;;;;;5100068;27;46204;-75
2022/06/03 12:38:44;;;;;;;2.35;1.25;;;19.40;85.50;;;;;;5102576;27;45233;-76
2022/06/03 12:41:12;;;;;;;1.23;1.13;;;19.50;81.50;;;;;;5104487;27;45485;-76
2022/06/03 12:44:00;;;;;;;2.03;1.30;;;19.30;85.80;;;;;;5109120;27;45501;-76
2022/06/03 12:46:40;;;;;;;7.57;1.50;;;19.20;82.10;;;;;;5108071;27;46271;-76
2022/06/03 12:49:19;;;;;;;0.75;0.60;;;19.20;84.90;;;;;;5107926;27;45186;-76
2022/06/03 12:51:59;;;;;;;1.30;0.90;;;19.30;86.90;;;;;;5101687;27;45471;-76
2022/06/03 12:54:26;;;;;;;1.02;0.80;;;19.40;87.00;;;;;;5106333;27;45397;-76
2022/06/03 12:56:59;;;;;;;1.10;0.75;;;19.50;87.10;;;;;;5098844;27;46328;-76
2022/06/03 12:59:44;;;;;;;3.13;1.02;;;19.50;87.00;;;;;;5087644;28;45822;-76
2022/06/03 13:02:17;;;;;;;2.13;0.93;;;19.60;83.60;;;;;;5099552;27;45256;-76
2022/06/03 13:05:02;;;;;;;3.55;1.30;;;19.50;86.50;;;;;;5089321;27;45292;-76
2022/06/03 13:07:35;;;;;;;3.45;1.30;;;19.50;85.30;;;;;;5085914;27;47047;-76
2022/06/03 13:10:27;;;;;;;1.23;1.13;;;19.50;84.70;;;;;;5099492;27;46562;-76
2022/06/03 13:12:55;;;;;;;0.63;0.60;;;19.30;80.10;;;;;;5087270;27;45285;-74
2022/06/03 13:15:45;;;;;;;25.23;2.30;;;19.40;87.20;;;;;;5098483;27;45374;-76
2022/06/03 13:18:18;;;;;;;4.88;1.10;;;19.60;87.40;;;;;;5101434;27;47342;-76
2022/06/03 13:20:48;;;;;;;3.55;0.80;;;19.60;88.30;;;;;;5094800;27;45745;-76
2022/06/03 13:23:33;;;;;;;2.85;0.90;;;19.70;87.70;;;;;;5092623;27;45310;-76
2022/06/03 13:26:37;;;;;;;4.63;1.23;;;19.60;88.20;;;;;;5102533;27;45163;-76
2022/06/03 13:29:07;;;;;;;1.40;1.17;;;19.60;88.10;;;;;;5090390;27;47151;-76
2022/06/03 13:32:06;;;;;;;3.75;1.33;;;19.50;88.50;;;;;;5096219;27;45594;-76
2022/06/03 13:34:44;;;;;;;1.35;1.05;;;19.40;80.40;;;;;;5094268;27;46021;-76
2022/06/03 13:37:45;;;;;;;1.50;1.20;;;19.40;88.00;;;;;;5092208;27;46503;-76
2022/06/03 13:40:39;;;;;;;4.88;1.05;;;19.40;88.30;;;;;;5095775;27;47289;-77
2022/06/03 13:43:26;;;;;;;2.03;1.30;;;19.50;79.90;;;;;;5097420;27;45349;-77
2022/06/03 13:46:00;;;;;;;2.75;1.50;;;19.50;86.80;;;;;;5105425;27;45194;-77
2022/06/03 13:48:34;;;;;;;2.47;1.02;;;19.50;89.10;;;;;;5088905;27;45568;-77
2022/06/03 13:51:24;;;;;;;0.98;0.80;;;19.50;89.50;;;;;;5096720;27;45646;-77
2022/06/03 13:53:53;;;;;;;2.42;1.40;;;19.60;90.00;;;;;;5094562;27;45267;-76
2022/06/03 13:56:25;;;;;;;3.15;1.60;;;19.50;89.10;;;;;;5099399;27;45179;-77
2022/06/03 13:58:52;;;;;;;2.45;1.20;;;19.60;87.30;;;;;;5099308;27;45327;-77
2022/06/03 14:01:26;;;;;;;0.80;0.70;;;19.60;89.40;;;;;;5104964;27;47947;-77
2022/06/03 14:03:58;;;;;;;1.98;0.90;;;19.60;89.80;;;;;;5102509;27;45534;-77
2022/06/03 14:06:34;;;;;;;2.38;0.98;;;19.80;90.10;;;;;;5102764;27;45304;-77
2022/06/03 14:09:07;;;;;;;1.60;0.90;;;19.70;89.60;;;;;;5104073;27;45810;-77
2022/06/03 14:11:38;;;;;;;2.88;1.35;;;19.70;89.70;;;;;;5108417;27;47705;-76
2022/06/03 14:14:12;;;;;;;3.03;1.40;;;19.60;90.20;;;;;;5107342;27;45300;-77
2022/06/03 14:16:44;;;;;;;1.77;1.20;;;19.50;89.90;;;;;;5093821;27;45373;-77
2022/06/03 14:19:36;;;;;;;2.13;1.13;;;19.50;90.00;;;;;;5107373;27;45097;-77
2022/06/03 14:22:13;;;;;;;1.85;1.20;;;19.40;89.10;;;;;;5082691;27;45596;-77
2022/06/03 14:24:48;;;;;;;2.63;1.40;;;19.40;86.60;;;;;;5090127;28;45340;-77
2022/06/03 14:27:25;;;;;;;2.92;1.02;;;19.40;83.80;;;;;;5106819;27;45279;-77
2022/06/03 14:29:57;;;;;;;1.38;1.10;;;19.30;87.40;;;;;;5091239;28;45117;-77
2022/06/03 14:32:27;;;;;;;1.02;1.00;;;19.30;90.00;;;;;;5108381;27;47786;-78
2022/06/03 14:34:59;;;;;;;2.17;1.48;;;19.40;90.00;;;;;;5107841;27;45323;-77
2022/06/03 14:37:35;;;;;;;3.17;1.13;;;19.50;87.60;;;;;;5106250;27;45392;-77
2022/06/03 14:40:06;;;;;;;1.45;1.20;;;19.40;90.10;;;;;;5102027;27;45170;-77
2022/06/03 14:42:37;;;;;;;1.73;1.23;;;19.40;83.60;;;;;;5093333;27;47113;-78